createdAt,value
2023-05-04T00:00:13.669Z,100431.09
2023-05-04T00:01:12.323Z,100433.44
2023-05-04T00:02:10.281Z,100431.69
2023-05-04T00:03:08.472Z,100431.00
2023-05-04T00:04:08.145Z,100436.75
2023-05-04T00:05:07.146Z,100438.59
2023-05-04T00:06:05.314Z,100437.94
2023-05-04T00:07:03.276Z,100435.25
2023-05-04T00:08:01.097Z,100440.56
2023-05-04T00:08:59.220Z,100434.13
2023-05-04T00:09:57.023Z,100433.78
2023-05-04T00:10:56.434Z,100428.94
2023-05-04T00:11:54.288Z,100427.09
2023-05-04T00:12:53.012Z,100433.87
2023-05-04T00:13:50.735Z,100428.50
2023-05-04T00:14:48.582Z,100431.72
2023-05-04T00:15:46.535Z,100425.03
2023-05-04T00:16:44.852Z,100426.50
2023-05-04T00:17:42.890Z,100424.00
2023-05-04T00:18:40.698Z,100425.12
2023-05-04T00:19:41.327Z,100422.75
2023-05-04T00:20:39.169Z,100424.03
2023-05-04T00:21:37.007Z,100423.25
2023-05-04T00:22:34.803Z,100425.59
2023-05-04T00:23:32.676Z,100424.69
2023-05-04T00:24:30.547Z,100428.06
2023-05-04T00:25:28.308Z,100426.56
2023-05-04T00:26:26.126Z,100426.28
2023-05-04T00:27:24.158Z,100419.75
2023-05-04T00:28:21.998Z,100425.81
2023-05-04T00:29:19.893Z,100421.59
2023-05-04T00:30:17.839Z,100424.56
2023-05-04T00:31:17.313Z,100417.69
2023-05-04T00:32:15.238Z,100415.63
2023-05-04T00:33:13.171Z,100419.19
2023-05-04T00:34:10.955Z,100419.53
2023-05-04T00:35:09.855Z,100416.91
2023-05-04T00:36:07.939Z,100408.16
2023-05-04T00:37:05.728Z,100405.44
2023-05-04T00:38:05.669Z,100411.47
2023-05-04T00:39:03.536Z,100402.34
2023-05-04T00:40:01.472Z,100412.81
2023-05-04T00:40:59.929Z,100404.81
2023-05-04T00:41:57.737Z,100407.03
2023-05-04T00:42:55.487Z,100410.63
2023-05-04T00:43:53.390Z,100409.13
2023-05-04T00:44:51.142Z,100403.25
2023-05-04T00:45:49.127Z,100406.97
2023-05-04T00:46:47.649Z,100406.81
2023-05-04T00:47:45.623Z,100401.66
2023-05-04T00:48:44.229Z,100405.97
2023-05-04T00:49:42.470Z,100413.13
2023-05-04T00:50:40.851Z,100406.13
2023-05-04T00:51:39.095Z,100405.75
2023-05-04T00:52:37.779Z,100404.47
2023-05-04T00:53:37.451Z,100409.16
2023-05-04T00:54:35.580Z,100405.44
2023-05-04T00:55:33.847Z,100401.62
2023-05-04T00:56:31.893Z,100409.38
2023-05-04T00:57:31.202Z,100402.84
2023-05-04T00:58:30.140Z,100408.66
2023-05-04T00:59:27.906Z,100404.44
2023-05-04T01:00:25.763Z,100408.00
2023-05-04T01:01:25.971Z,100400.56
2023-05-04T01:02:23.903Z,100404.22
2023-05-04T01:03:22.341Z,100403.53
2023-05-04T01:04:23.239Z,100411.78
2023-05-04T01:05:20.780Z,100406.75
2023-05-04T01:06:39.562Z,100400.69
2023-05-04T01:08:30.358Z,100402.47
2023-05-04T01:09:40.827Z,100402.28
2023-05-04T01:10:44.910Z,100401.12
2023-05-04T01:11:48.903Z,100401.94
2023-05-04T01:13:11.570Z,100402.59
2023-05-04T01:14:11.949Z,100397.59
2023-05-04T01:15:13.694Z,100401.75
2023-05-04T01:16:11.808Z,100402.59
2023-05-04T01:17:09.724Z,100392.91
2023-05-04T01:18:08.016Z,100398.12
2023-05-04T01:19:05.890Z,100392.50
2023-05-04T01:20:04.877Z,100399.59
2023-05-04T01:21:02.883Z,100401.50
2023-05-04T01:22:01.061Z,100399.97
2023-05-04T01:22:59.033Z,100402.53
2023-05-04T01:23:57.063Z,100398.78
2023-05-04T01:24:55.293Z,100406.09
2023-05-04T01:26:23.519Z,100401.00
2023-05-04T01:27:44.103Z,100398.22
2023-05-04T01:28:56.180Z,100395.16
2023-05-04T01:30:04.890Z,100397.72
2023-05-04T01:31:04.184Z,100391.31
2023-05-04T01:32:04.299Z,100387.31
2023-05-04T01:33:02.878Z,100393.22
2023-05-04T01:34:01.247Z,100388.00
2023-05-04T01:34:59.547Z,100386.88
2023-05-04T01:35:57.448Z,100389.00
2023-05-04T01:36:56.642Z,100386.88
2023-05-04T01:37:54.874Z,100389.41
2023-05-04T01:38:58.118Z,100388.53
2023-05-04T01:39:55.855Z,100381.38
2023-05-04T01:40:53.719Z,100378.09
2023-05-04T01:41:51.766Z,100379.63
2023-05-04T01:42:49.595Z,100378.94
2023-05-04T01:43:47.496Z,100380.19
2023-05-04T01:44:45.404Z,100380.38
2023-05-04T01:45:43.139Z,100382.47
2023-05-04T01:46:41.519Z,100375.97
2023-05-04T01:47:39.578Z,100380.56
2023-05-04T01:48:37.367Z,100375.81
2023-05-04T01:49:35.444Z,100380.25
2023-05-04T01:50:34.247Z,100368.69
2023-05-04T01:51:32.023Z,100371.56
2023-05-04T01:52:30.452Z,100375.31
2023-05-04T01:53:28.300Z,100372.19
2023-05-04T01:54:26.162Z,100371.19
2023-05-04T01:55:24.013Z,100372.78
2023-05-04T01:56:22.410Z,100372.09
2023-05-04T01:57:20.113Z,100370.41
2023-05-04T01:58:19.764Z,100370.25
2023-05-04T01:59:17.625Z,100369.25
2023-05-04T02:00:18.718Z,100374.53
2023-05-04T02:01:16.735Z,100371.00
2023-05-04T02:02:14.553Z,100368.22
2023-05-04T02:03:12.971Z,100377.38
2023-05-04T02:04:11.256Z,100369.09
2023-05-04T02:05:09.854Z,100374.75
2023-05-04T02:06:07.964Z,100373.06
2023-05-04T02:07:05.963Z,100373.38
2023-05-04T02:08:03.702Z,100376.47
2023-05-04T02:09:01.442Z,100382.69
2023-05-04T02:09:59.245Z,100382.94
2023-05-04T02:10:56.994Z,100381.81
2023-05-04T02:11:54.827Z,100378.53
2023-05-04T02:12:52.809Z,100380.94
2023-05-04T02:13:50.773Z,100384.47
2023-05-04T02:14:48.623Z,100387.22
2023-05-04T02:15:46.526Z,100383.84
2023-05-04T02:16:44.482Z,100389.78
2023-05-04T02:17:42.447Z,100387.22
2023-05-04T02:18:40.287Z,100373.56
2023-05-04T02:19:39.149Z,100387.72
2023-05-04T02:20:37.255Z,100382.06
2023-05-04T02:21:36.415Z,100386.97
2023-05-04T02:22:34.964Z,100379.22
2023-05-04T02:23:33.161Z,100381.19
2023-05-04T02:24:30.972Z,100384.16
2023-05-04T02:25:28.960Z,100383.88
2023-05-04T02:26:27.348Z,100390.69
2023-05-04T02:27:25.472Z,100384.19
2023-05-04T02:28:23.410Z,100383.47
2023-05-04T02:29:21.469Z,100380.41
2023-05-04T02:30:19.732Z,100383.50
2023-05-04T02:31:18.008Z,100381.09
2023-05-04T02:32:15.990Z,100383.34
2023-05-04T02:33:13.739Z,100389.28
2023-05-04T02:34:11.528Z,100382.78
2023-05-04T02:35:11.497Z,100377.56
2023-05-04T02:36:09.408Z,100381.50
2023-05-04T02:37:07.672Z,100382.81
2023-05-04T02:38:05.621Z,100373.59
2023-05-04T02:39:03.715Z,100387.28
2023-05-04T02:40:01.572Z,100378.81
2023-05-04T02:40:59.394Z,100380.41
2023-05-04T02:41:57.241Z,100385.87
2023-05-04T02:42:55.186Z,100377.97
2023-05-04T02:43:54.554Z,100383.37
2023-05-04T02:44:52.337Z,100380.69
2023-05-04T02:45:50.163Z,100388.16
2023-05-04T02:46:48.882Z,100380.25
2023-05-04T02:47:46.637Z,100381.38
2023-05-04T02:48:45.902Z,100382.81
2023-05-04T02:49:44.100Z,100378.25
2023-05-04T02:50:41.996Z,100375.28
2023-05-04T02:51:41.462Z,100383.63
2023-05-04T02:52:39.456Z,100384.88
2023-05-04T02:53:37.248Z,100379.97
2023-05-04T02:54:35.077Z,100383.34
2023-05-04T02:55:33.066Z,100379.69
2023-05-04T02:56:30.908Z,100387.16
2023-05-04T02:57:28.754Z,100376.84
2023-05-04T02:58:26.535Z,100380.53
2023-05-04T02:59:24.185Z,100383.63
2023-05-04T03:00:22.229Z,100384.19
2023-05-04T03:01:20.155Z,100385.59
2023-05-04T03:02:18.011Z,100388.97
2023-05-04T03:03:15.808Z,100384.06
2023-05-04T03:04:13.621Z,100384.34
2023-05-04T03:05:11.667Z,100394.34
2023-05-04T03:06:09.706Z,100391.25
2023-05-04T03:07:07.580Z,100388.97
2023-05-04T03:08:05.741Z,100382.06
2023-05-04T03:09:03.749Z,100381.50
2023-05-04T03:10:01.732Z,100390.53
2023-05-04T03:10:59.594Z,100381.06
2023-05-04T03:11:57.552Z,100381.06
2023-05-04T03:12:55.284Z,100385.03
2023-05-04T03:13:53.177Z,100381.38
2023-05-04T03:14:51.059Z,100381.91
2023-05-04T03:15:50.197Z,100385.16
2023-05-04T03:16:48.066Z,100379.66
2023-05-04T03:17:46.146Z,100386.44
2023-05-04T03:18:59.066Z,100380.81
2023-05-04T03:19:56.858Z,100386.19
2023-05-04T03:20:54.639Z,100387.03
2023-05-04T03:21:52.789Z,100382.91
2023-05-04T03:22:50.656Z,100393.37
2023-05-04T03:23:48.338Z,100392.09
2023-05-04T03:24:46.223Z,100392.78
2023-05-04T03:25:43.998Z,100401.84
2023-05-04T03:26:42.051Z,100401.12
2023-05-04T03:27:39.819Z,100400.00
2023-05-04T03:28:37.697Z,100402.84
2023-05-04T03:29:35.519Z,100403.25
2023-05-04T03:30:33.300Z,100402.09
2023-05-04T03:31:31.201Z,100400.28
2023-05-04T03:32:28.986Z,100410.31
2023-05-04T03:33:27.000Z,100407.06
2023-05-04T03:34:24.811Z,100404.66
2023-05-04T03:35:25.007Z,100407.34
2023-05-04T03:36:23.122Z,100413.94
2023-05-04T03:37:21.135Z,100403.25
2023-05-04T03:38:18.970Z,100413.00
2023-05-04T03:39:19.998Z,100401.69
2023-05-04T03:40:23.011Z,100399.84
2023-05-04T03:41:22.699Z,100405.22
2023-05-04T03:42:20.561Z,100406.47
2023-05-04T03:43:18.346Z,100403.53
2023-05-04T03:44:16.293Z,100409.59
2023-05-04T03:45:14.148Z,100405.94
2023-05-04T03:46:12.224Z,100406.31
2023-05-04T03:47:10.129Z,100412.53
2023-05-04T03:48:07.934Z,100410.41
2023-05-04T03:49:05.780Z,100407.31
2023-05-04T03:50:04.969Z,100408.19
2023-05-04T03:51:03.200Z,100406.75
2023-05-04T03:52:01.063Z,100413.41
2023-05-04T03:52:59.200Z,100416.37
2023-05-04T03:53:56.983Z,100407.63
2023-05-04T03:54:54.909Z,100411.97
2023-05-04T03:55:52.720Z,100410.44
2023-05-04T03:56:50.674Z,100413.41
2023-05-04T03:57:48.455Z,100411.41
2023-05-04T03:58:46.184Z,100420.88
2023-05-04T03:59:43.918Z,100416.22
2023-05-04T04:00:42.149Z,100415.25
2023-05-04T04:01:39.892Z,100420.59
2023-05-04T04:02:37.937Z,100414.09
2023-05-04T04:03:37.276Z,100410.59
2023-05-04T04:04:35.291Z,100407.63
2023-05-04T04:05:33.241Z,100412.97
2023-05-04T04:06:32.590Z,100403.66
2023-05-04T04:07:30.789Z,100412.94
2023-05-04T04:08:28.611Z,100408.00
2023-05-04T04:09:26.393Z,100406.00
2023-05-04T04:10:24.585Z,100407.81
2023-05-04T04:11:22.336Z,100410.19
2023-05-04T04:12:21.154Z,100407.78
2023-05-04T04:13:19.229Z,100415.19
2023-05-04T04:14:17.017Z,100405.88
2023-05-04T04:15:14.837Z,100404.72
2023-05-04T04:16:12.682Z,100409.66
2023-05-04T04:17:10.429Z,100408.38
2023-05-04T04:18:08.365Z,100404.13
2023-05-04T04:19:07.501Z,100407.63
2023-05-04T04:20:05.966Z,100407.16
2023-05-04T04:21:04.205Z,100406.06
2023-05-04T04:22:02.256Z,100403.56
2023-05-04T04:23:00.123Z,100402.13
2023-05-04T04:23:57.866Z,100406.87
2023-05-04T04:24:55.900Z,100404.53
2023-05-04T04:25:54.517Z,100404.03
2023-05-04T04:26:52.742Z,100405.38
2023-05-04T04:27:50.556Z,100400.59
2023-05-04T04:28:51.248Z,100407.47
2023-05-04T04:29:48.982Z,100404.81
2023-05-04T04:30:47.127Z,100404.84
2023-05-04T04:31:44.934Z,100400.28
2023-05-04T04:32:42.822Z,100400.19
2023-05-04T04:33:41.678Z,100400.81
2023-05-04T04:34:39.508Z,100404.34
2023-05-04T04:35:37.791Z,100405.31
2023-05-04T04:36:35.659Z,100404.50
2023-05-04T04:37:33.408Z,100400.00
2023-05-04T04:38:31.357Z,100404.13
2023-05-04T04:39:29.210Z,100405.97
2023-05-04T04:40:27.169Z,100402.63
2023-05-04T04:41:26.658Z,100407.41
2023-05-04T04:42:24.670Z,100400.38
2023-05-04T04:43:22.386Z,100400.16
2023-05-04T04:44:21.456Z,100407.91
2023-05-04T04:45:20.997Z,100408.00
2023-05-04T04:46:19.883Z,100407.00
2023-05-04T04:47:18.560Z,100404.00
2023-05-04T04:48:16.530Z,100402.19
2023-05-04T04:49:14.606Z,100406.56
2023-05-04T04:50:13.814Z,100402.00
2023-05-04T04:51:12.990Z,100400.16
2023-05-04T04:52:12.225Z,100403.19
2023-05-04T04:53:10.529Z,100407.22
2023-05-04T04:54:08.608Z,100404.03
2023-05-04T04:55:08.166Z,100401.50
2023-05-04T04:56:08.258Z,100406.53
2023-05-04T04:57:06.730Z,100407.69
2023-05-04T04:58:04.675Z,100405.47
2023-05-04T04:59:02.630Z,100391.56
2023-05-04T05:00:08.486Z,100397.63
2023-05-04T05:01:06.427Z,100403.72
2023-05-04T05:02:04.720Z,100395.78
2023-05-04T05:03:03.755Z,100410.34
2023-05-04T05:04:01.559Z,100411.16
2023-05-04T05:04:59.851Z,100403.22
2023-05-04T05:05:57.704Z,100403.34
2023-05-04T05:06:55.518Z,100401.78
2023-05-04T05:07:53.659Z,100399.91
2023-05-04T05:08:52.894Z,100409.25
2023-05-04T05:09:50.759Z,100405.31
2023-05-04T05:10:48.656Z,100400.09
2023-05-04T05:11:46.407Z,100405.38
2023-05-04T05:12:44.364Z,100402.72
2023-05-04T05:13:42.112Z,100402.91
2023-05-04T05:14:39.977Z,100407.19
2023-05-04T05:15:37.727Z,100406.34
2023-05-04T05:16:36.067Z,100408.25
2023-05-04T05:17:36.158Z,100410.91
2023-05-04T05:18:34.288Z,100409.59
2023-05-04T05:19:37.970Z,100410.81
2023-05-04T05:20:36.186Z,100411.56
2023-05-04T05:21:34.578Z,100410.72
2023-05-04T05:22:34.790Z,100407.50
2023-05-04T05:23:34.245Z,100414.94
2023-05-04T05:24:33.129Z,100416.53
2023-05-04T05:25:30.991Z,100411.13
2023-05-04T05:26:28.819Z,100418.41
2023-05-04T05:27:26.634Z,100408.34
2023-05-04T05:28:34.778Z,100413.37
2023-05-04T05:29:32.704Z,100410.53
2023-05-04T05:30:30.578Z,100406.53
2023-05-04T05:31:28.382Z,100420.59
2023-05-04T05:32:26.360Z,100422.28
2023-05-04T05:33:24.569Z,100425.78
2023-05-04T05:34:22.917Z,100414.03
2023-05-04T05:35:23.664Z,100423.66
2023-05-04T05:36:23.053Z,100425.06
2023-05-04T05:37:20.991Z,100430.41
2023-05-04T05:38:19.261Z,100424.59
2023-05-04T05:39:18.083Z,100428.41
2023-05-04T05:40:16.421Z,100423.50
2023-05-04T05:41:15.904Z,100426.56
2023-05-04T05:42:13.678Z,100425.97
2023-05-04T05:43:11.759Z,100429.31
2023-05-04T05:44:10.544Z,100426.19
2023-05-04T05:45:11.477Z,100426.19
2023-05-04T05:46:09.397Z,100426.56
2023-05-04T05:47:07.319Z,100431.78
2023-05-04T05:48:05.519Z,100430.88
2023-05-04T05:49:15.067Z,100423.87
2023-05-04T05:50:15.390Z,100434.28
2023-05-04T05:51:13.918Z,100433.00
2023-05-04T05:52:11.699Z,100429.87
2023-05-04T05:53:10.398Z,100433.19
2023-05-04T05:54:08.128Z,100431.34
2023-05-04T05:55:08.971Z,100431.81
2023-05-04T05:56:06.533Z,100421.53
2023-05-04T05:57:03.929Z,100424.94
2023-05-04T05:58:01.868Z,100423.22
2023-05-04T05:58:59.525Z,100431.84
2023-05-04T06:00:00.591Z,100428.34
2023-05-04T06:00:59.489Z,100430.63
2023-05-04T06:01:57.112Z,100428.69
2023-05-04T06:02:56.333Z,100435.09
2023-05-04T06:03:55.818Z,100428.06
2023-05-04T06:04:53.362Z,100430.97
2023-05-04T06:05:50.756Z,100428.28
2023-05-04T06:06:48.893Z,100431.62
2023-05-04T06:07:46.239Z,100427.34
2023-05-04T06:08:43.664Z,100423.87
2023-05-04T06:09:41.467Z,100422.97
2023-05-04T06:10:38.870Z,100420.41
2023-05-04T06:11:36.534Z,100428.78
2023-05-04T06:12:33.717Z,100435.81
2023-05-04T06:13:30.879Z,100427.88
2023-05-04T06:14:28.000Z,100431.25
2023-05-04T06:15:25.957Z,100428.91
2023-05-04T06:16:23.326Z,100429.59
2023-05-04T06:17:22.773Z,100430.44
2023-05-04T06:18:20.680Z,100430.53
2023-05-04T06:19:18.190Z,100435.16
2023-05-04T06:20:15.880Z,100432.72
2023-05-04T06:21:13.818Z,100434.03
2023-05-04T06:22:11.087Z,100442.25
2023-05-04T06:23:08.338Z,100437.88
2023-05-04T06:24:05.971Z,100428.97
2023-05-04T06:25:05.290Z,100444.97
2023-05-04T06:26:08.488Z,100441.34
2023-05-04T06:27:07.889Z,100433.47
2023-05-04T06:28:05.420Z,100447.50
2023-05-04T06:29:03.242Z,100445.25
2023-05-04T06:30:01.299Z,100444.81
2023-05-04T06:30:58.315Z,100443.97
2023-05-04T06:31:59.207Z,100444.16
2023-05-04T06:32:56.622Z,100450.78
2023-05-04T06:33:53.996Z,100441.88
2023-05-04T06:35:05.401Z,100455.00
2023-05-04T06:36:02.616Z,100442.50
2023-05-04T06:37:08.252Z,100441.25
2023-05-04T06:38:05.543Z,100449.84
2023-05-04T06:39:03.047Z,100449.84
2023-05-04T06:40:00.191Z,100446.38
2023-05-04T06:40:57.937Z,100447.28
2023-05-04T06:41:55.981Z,100447.37
2023-05-04T06:42:53.951Z,100452.72
2023-05-04T06:43:51.042Z,100453.91
2023-05-04T06:44:48.448Z,100451.22
2023-05-04T06:45:45.582Z,100461.78
2023-05-04T06:46:42.712Z,100455.03
2023-05-04T06:47:39.919Z,100456.00
2023-05-04T06:48:38.287Z,100459.84
2023-05-04T06:49:35.901Z,100466.28
2023-05-04T06:50:33.908Z,100454.31
2023-05-04T06:51:32.305Z,100459.06
2023-05-04T06:52:30.095Z,100450.19
2023-05-04T06:53:27.307Z,100456.16
2023-05-04T06:54:24.452Z,100457.44
2023-05-04T06:55:22.140Z,100449.56
2023-05-04T06:56:19.396Z,100454.72
2023-05-04T06:57:16.979Z,100445.44
2023-05-04T06:58:14.199Z,100456.09
2023-05-04T06:59:11.340Z,100455.09
2023-05-04T07:00:09.360Z,100452.91
2023-05-04T07:01:09.736Z,100454.19
2023-05-04T07:02:07.257Z,100453.75
2023-05-04T07:03:04.686Z,100448.75
2023-05-04T07:04:02.026Z,100449.66
2023-05-04T07:04:59.233Z,100454.69
2023-05-04T07:05:56.887Z,100452.41
2023-05-04T07:06:54.436Z,100447.34
2023-05-04T07:07:52.483Z,100447.41
2023-05-04T07:08:50.247Z,100449.72
2023-05-04T07:09:48.724Z,100449.91
2023-05-04T07:10:46.996Z,100452.25
2023-05-04T07:11:44.456Z,100454.78
2023-05-04T07:12:43.378Z,100456.88
2023-05-04T07:13:40.673Z,100456.03
2023-05-04T07:14:39.072Z,100450.59
2023-05-04T07:15:40.883Z,100457.06
2023-05-04T07:16:42.588Z,100455.81
2023-05-04T07:17:46.054Z,100457.50
2023-05-04T07:18:47.101Z,100458.34
2023-05-04T07:19:44.342Z,100457.25
2023-05-04T07:20:44.139Z,100461.69
2023-05-04T07:21:42.977Z,100461.91
2023-05-04T07:22:40.918Z,100456.28
2023-05-04T07:23:38.717Z,100455.81
2023-05-04T07:24:36.185Z,100457.72
2023-05-04T07:25:33.563Z,100460.25
2023-05-04T07:26:31.734Z,100459.59
2023-05-04T07:27:29.148Z,100459.16
2023-05-04T07:28:27.724Z,100467.19
2023-05-04T07:29:25.468Z,100461.25
2023-05-04T07:30:27.665Z,100457.94
2023-05-04T07:31:28.118Z,100458.56
2023-05-04T07:32:27.306Z,100464.03
2023-05-04T07:33:25.970Z,100459.81
2023-05-04T07:34:33.885Z,100464.03
2023-05-04T07:35:35.484Z,100457.06
2023-05-04T07:36:36.123Z,100456.34
2023-05-04T07:37:36.736Z,100458.88
2023-05-04T07:38:35.415Z,100464.03
2023-05-04T07:39:35.998Z,100459.44
2023-05-04T07:40:34.705Z,100464.75
2023-05-04T07:41:34.583Z,100471.44
2023-05-04T07:42:33.765Z,100465.22
2023-05-04T07:43:31.188Z,100463.59
2023-05-04T07:44:28.451Z,100469.31
2023-05-04T07:45:26.841Z,100463.66
2023-05-04T07:46:27.080Z,100470.53
2023-05-04T07:47:24.749Z,100465.50
2023-05-04T07:48:25.261Z,100470.94
2023-05-04T07:49:23.641Z,100470.09
2023-05-04T07:50:21.154Z,100467.22
2023-05-04T07:51:19.093Z,100465.00
2023-05-04T07:52:16.816Z,100467.31
2023-05-04T07:53:14.916Z,100465.81
2023-05-04T07:54:13.213Z,100469.94
2023-05-04T07:55:11.394Z,100464.28
2023-05-04T07:56:13.828Z,100463.16
2023-05-04T07:57:11.783Z,100468.56
2023-05-04T07:58:10.444Z,100468.63
2023-05-04T07:59:08.464Z,100468.69
2023-05-04T08:00:06.934Z,100469.34
2023-05-04T08:01:04.853Z,100459.53
2023-05-04T08:02:01.951Z,100468.81
2023-05-04T08:02:59.755Z,100465.22
2023-05-04T08:03:57.676Z,100472.03
2023-05-04T08:04:57.860Z,100468.19
2023-05-04T08:05:55.314Z,100468.06
2023-05-04T08:06:54.131Z,100474.56
2023-05-04T08:07:52.313Z,100473.28
2023-05-04T08:08:53.420Z,100474.72
2023-05-04T08:09:53.104Z,100467.97
2023-05-04T08:10:51.454Z,100470.28
2023-05-04T08:11:51.996Z,100468.69
2023-05-04T08:12:49.355Z,100468.66
2023-05-04T08:13:47.750Z,100464.44
2023-05-04T08:14:48.178Z,100462.47
2023-05-04T08:15:45.577Z,100462.16
2023-05-04T08:16:43.556Z,100463.50
2023-05-04T08:17:41.142Z,100466.28
2023-05-04T08:18:38.649Z,100454.31
2023-05-04T08:19:36.331Z,100457.66
2023-05-04T08:20:33.520Z,100453.41
2023-05-04T08:21:30.952Z,100471.22
2023-05-04T08:22:28.654Z,100461.41
2023-05-04T08:23:26.042Z,100465.16
2023-05-04T08:24:23.824Z,100460.66
2023-05-04T08:25:22.579Z,100459.94
2023-05-04T08:26:23.890Z,100451.06
2023-05-04T08:27:21.177Z,100466.41
2023-05-04T08:28:18.949Z,100465.62
2023-05-04T08:29:15.954Z,100460.25
2023-05-04T08:30:14.289Z,100481.63
2023-05-04T08:31:11.496Z,100462.69
2023-05-04T08:32:08.786Z,100461.91
2023-05-04T08:33:05.991Z,100467.25
2023-05-04T08:34:04.123Z,100463.66
2023-05-04T08:35:01.322Z,100463.31
2023-05-04T08:35:58.919Z,100467.06
2023-05-04T08:36:56.374Z,100462.16
2023-05-04T08:37:53.738Z,100457.06
2023-05-04T08:38:51.287Z,100459.41
2023-05-04T08:39:48.569Z,100464.09
2023-05-04T08:40:45.961Z,100462.53
2023-05-04T08:41:43.839Z,100453.69
2023-05-04T08:42:41.151Z,100461.91
2023-05-04T08:43:38.570Z,100456.97
2023-05-04T08:44:35.942Z,100460.87
2023-05-04T08:45:33.698Z,100454.50
2023-05-04T08:46:33.313Z,100468.78
2023-05-04T08:47:30.451Z,100462.47
2023-05-04T08:48:28.221Z,100465.94
2023-05-04T08:49:25.515Z,100467.69
2023-05-04T08:50:22.758Z,100467.94
2023-05-04T08:51:20.122Z,100461.75
2023-05-04T08:52:18.571Z,100476.38
2023-05-04T08:53:16.952Z,100468.06
2023-05-04T08:54:15.352Z,100466.94
2023-05-04T08:55:13.208Z,100471.28
2023-05-04T08:56:13.577Z,100464.03
2023-05-04T08:57:10.869Z,100467.19
2023-05-04T08:58:13.382Z,100463.53
2023-05-04T08:59:19.505Z,100459.97
2023-05-04T09:00:18.240Z,100459.75
2023-05-04T09:01:17.808Z,100460.84
2023-05-04T09:02:15.854Z,100458.16
2023-05-04T09:03:14.489Z,100458.94
2023-05-04T09:04:12.112Z,100455.16
2023-05-04T09:05:13.242Z,100453.78
2023-05-04T09:06:11.594Z,100455.97
2023-05-04T09:07:09.549Z,100460.50
2023-05-04T09:08:07.404Z,100450.94
2023-05-04T09:09:05.578Z,100449.03
2023-05-04T09:10:04.435Z,100452.38
2023-05-04T09:11:02.508Z,100449.28
2023-05-04T09:12:00.623Z,100452.84
2023-05-04T09:12:57.930Z,100448.97
2023-05-04T09:13:56.994Z,100449.63
2023-05-04T09:14:55.184Z,100452.72
2023-05-04T09:15:58.150Z,100444.59
2023-05-04T09:16:55.609Z,100445.31
2023-05-04T09:17:58.183Z,100448.31
2023-05-04T09:18:55.402Z,100453.19
2023-05-04T09:20:03.426Z,100445.91
2023-05-04T09:21:01.200Z,100442.75
2023-05-04T09:21:58.225Z,100450.31
2023-05-04T09:23:16.916Z,100447.19
2023-05-04T09:24:14.740Z,100439.78
2023-05-04T09:25:13.498Z,100432.97
2023-05-04T09:26:10.750Z,100444.06
2023-05-04T09:27:11.753Z,100432.50
2023-05-04T09:28:08.948Z,100435.28
2023-05-04T09:29:16.205Z,100425.69
2023-05-04T09:30:13.537Z,100432.59
2023-05-04T09:31:12.194Z,100437.19
2023-05-04T09:32:13.810Z,100433.97
2023-05-04T09:33:11.137Z,100434.66
2023-05-04T09:34:11.200Z,100444.59
2023-05-04T09:35:10.812Z,100445.41
2023-05-04T09:36:18.480Z,100437.81
2023-05-04T09:37:15.874Z,100434.91
2023-05-04T09:38:25.872Z,100432.41
2023-05-04T09:39:23.657Z,100431.72
2023-05-04T09:40:34.700Z,100436.72
2023-05-04T09:41:35.167Z,100438.31
2023-05-04T09:42:33.049Z,100436.50
2023-05-04T09:43:44.476Z,100440.41
2023-05-04T09:44:42.589Z,100432.28
2023-05-04T09:45:48.736Z,100430.59
2023-05-04T09:47:00.063Z,100428.66
2023-05-04T09:47:57.837Z,100434.88
2023-05-04T09:49:02.032Z,100430.94
2023-05-04T09:49:59.885Z,100429.19
2023-05-04T09:50:58.837Z,100430.34
2023-05-04T09:51:57.929Z,100440.81
2023-05-04T09:52:55.536Z,100423.34
2023-05-04T09:53:55.899Z,100427.53
2023-05-04T09:54:54.325Z,100429.44
2023-05-04T09:56:24.085Z,100434.31
2023-05-04T09:57:25.672Z,100437.56
2023-05-04T09:58:25.875Z,100440.41
2023-05-04T09:59:24.195Z,100431.41
2023-05-04T10:00:22.778Z,100436.53
2023-05-04T10:01:21.840Z,100432.16
2023-05-04T10:02:23.290Z,100430.22
2023-05-04T10:03:24.602Z,100439.84
2023-05-04T10:04:22.183Z,100439.69
2023-05-04T10:05:22.107Z,100438.25
2023-05-04T10:06:22.603Z,100427.81
2023-05-04T10:07:21.238Z,100426.47
2023-05-04T10:08:19.559Z,100428.19
2023-05-04T10:09:18.742Z,100417.28
2023-05-04T10:10:18.010Z,100423.19
2023-05-04T10:11:21.207Z,100422.41
2023-05-04T10:12:19.538Z,100425.41
2023-05-04T10:13:18.133Z,100423.09
2023-05-04T10:14:16.287Z,100427.25
2023-05-04T10:15:15.822Z,100419.63
2023-05-04T10:16:54.258Z,100414.72
2023-05-04T10:18:30.948Z,100421.84
2023-05-04T10:19:55.478Z,100421.59
2023-05-04T10:21:27.776Z,100417.41
2023-05-04T10:22:36.711Z,100411.28
2023-05-04T10:23:54.216Z,100416.94
2023-05-04T10:25:29.647Z,100414.28
2023-05-04T10:27:05.140Z,100406.56
2023-05-04T10:28:28.042Z,100406.84
2023-05-04T10:29:29.298Z,100409.78
2023-05-04T10:30:27.458Z,100406.50
2023-05-04T10:31:25.273Z,100408.50
2023-05-04T10:32:26.701Z,100407.91
2023-05-04T10:33:26.046Z,100406.63
2023-05-04T10:34:31.061Z,100406.91
2023-05-04T10:35:29.309Z,100402.87
2023-05-04T10:36:38.172Z,100408.22
2023-05-04T10:37:38.859Z,100407.25
2023-05-04T10:38:38.377Z,100399.91
2023-05-04T10:39:36.673Z,100400.44
2023-05-04T10:40:41.580Z,100410.91
2023-05-04T10:41:39.471Z,100407.50
2023-05-04T10:42:43.656Z,100405.47
2023-05-04T10:43:44.064Z,100403.41
2023-05-04T10:44:58.684Z,100396.97
2023-05-04T10:45:58.291Z,100400.56
2023-05-04T10:47:06.233Z,100401.12
2023-05-04T10:48:05.723Z,100392.44
2023-05-04T10:49:03.572Z,100392.31
2023-05-04T10:50:13.243Z,100397.50
2023-05-04T10:51:24.323Z,100392.63
2023-05-04T10:52:22.829Z,100394.72
2023-05-04T10:53:33.778Z,100392.56
2023-05-04T10:54:32.053Z,100391.75
2023-05-04T10:55:41.040Z,100390.50
2023-05-04T10:56:38.771Z,100391.25
2023-05-04T10:57:56.979Z,100390.88
2023-05-04T10:58:55.940Z,100392.53
2023-05-04T11:00:02.451Z,100386.34
2023-05-04T11:01:00.380Z,100387.47
2023-05-04T11:01:58.895Z,100381.59
2023-05-04T11:03:04.521Z,100382.53
2023-05-04T11:04:04.156Z,100378.06
2023-05-04T11:05:06.468Z,100372.84
2023-05-04T11:06:08.827Z,100377.28
2023-05-04T11:07:09.150Z,100377.03
2023-05-04T11:08:20.117Z,100370.69
2023-05-04T11:09:18.822Z,100375.25
2023-05-04T11:10:25.249Z,100370.56
2023-05-04T11:11:23.793Z,100370.09
2023-05-04T11:12:22.421Z,100365.94
2023-05-04T11:13:20.386Z,100361.38
2023-05-04T11:14:29.872Z,100371.53
2023-05-04T11:15:27.857Z,100370.62
2023-05-04T11:16:27.014Z,100367.62
2023-05-04T11:17:28.515Z,100364.97
2023-05-04T11:18:34.927Z,100358.59
2023-05-04T11:19:34.186Z,100367.22
2023-05-04T11:20:32.123Z,100365.75